Time;durP1;ratioP1;P1;durP2;ratioP2;P2;SDS_P1;SDS_P2;PMS_P1;PMS_P2;Temp;Humidity;BMP_temperature;BMP_pressure;BME280_temperature;BME280_humidity;BME280_pressure;Samples;Min_cycle;Max_cycle;Signal;HPM_P1;HPM_P2
2023/08/31 00:01:03;;;;;;;4.93;2.65;;;;;;;20.48;57.45;98854.09;4369585;32;33664;-75
2023/08/31 00:03:32;;;;;;;4.12;2.37;;;;;;;20.48;57.48;98864.97;4373207;32;34122;-72
2023/08/31 00:06:02;;;;;;;5.22;2.75;;;;;;;20.49;57.17;98860.38;4365850;32;35381;-73
2023/08/31 00:08:30;;;;;;;9.15;3.97;;;;;;;20.42;57.42;98870.38;4367212;32;34633;-75
2023/08/31 00:11:00;;;;;;;8.85;3.80;;;;;;;20.38;57.62;98866.34;4367637;32;33777;-75
2023/08/31 00:13:28;;;;;;;5.32;3.15;;;;;;;20.12;58.78;98869.72;4364925;32;35279;-73
2023/08/31 00:15:57;;;;;;;5.87;3.75;;;;;;;20.32;58.54;98865.31;4365269;32;33573;-74
2023/08/31 00:18:25;;;;;;;7.50;4.10;;;;;;;20.37;58.49;98864.69;4365279;32;33708;-73
2023/08/31 00:20:53;;;;;;;7.30;3.90;;;;;;;20.29;58.71;98870.25;4367223;32;33776;-73
2023/08/31 00:23:21;;;;;;;7.32;3.40;;;;;;;20.18;58.62;98864.34;4367442;32;34027;-74
2023/08/31 00:25:48;;;;;;;5.87;2.83;;;;;;;20.32;58.14;98853.56;4360458;32;33676;-74
2023/08/31 00:28:18;;;;;;;6.28;3.62;;;;;;;20.29;58.24;98864.81;4361161;32;34601;-75
2023/08/31 00:30:46;;;;;;;9.93;4.30;;;;;;;20.30;58.18;98866.53;4366440;32;33932;-75
2023/08/31 00:33:15;;;;;;;4.28;2.87;;;;;;;20.20;58.12;98866.88;4357156;32;33828;-75
2023/08/31 00:35:45;;;;;;;5.55;3.35;;;;;;;20.15;58.36;98872.06;4371270;32;33422;-74
2023/08/31 00:38:14;;;;;;;7.97;3.78;;;;;;;20.19;58.26;98870.63;4366154;32;33479;-74
2023/08/31 00:40:45;;;;;;;8.85;4.12;;;;;;;20.27;58.00;98870.47;4366257;32;34173;-74
2023/08/31 00:43:17;;;;;;;9.90;3.62;;;;;;;20.20;58.22;98872.31;4368040;32;34892;-74
2023/08/31 00:45:54;;;;;;;3.40;2.30;;;;;;;20.28;58.03;98872.16;4371400;32;33386;-74
2023/08/31 00:48:22;;;;;;;4.93;3.10;;;;;;;20.20;58.16;98880.47;4355873;32;33377;-74
2023/08/31 00:50:50;;;;;;;4.05;2.17;;;;;;;20.20;58.08;98867.72;4366649;32;34130;-73
2023/08/31 00:53:20;;;;;;;6.22;3.22;;;;;;;20.19;58.26;98871.47;4356815;32;34120;-70
2023/08/31 00:55:47;;;;;;;7.28;4.43;;;;;;;20.22;58.31;98879.22;4365928;32;33420;-73
2023/08/31 00:58:15;;;;;;;5.37;2.95;;;;;;;20.21;58.31;98884.84;4372278;32;33621;-74
2023/08/31 01:01:00;;;;;;;5.50;3.55;;;;;;;20.06;58.72;98878.66;4354294;32;34122;-74
2023/08/31 01:03:32;;;;;;;;;;;;;;;19.97;58.82;98878.81;4359262;32;33627;-74
2023/08/31 01:06:13;;;;;;;6.47;3.85;;;;;;;20.06;58.83;98884.94;4371341;32;35170;-74
2023/08/31 01:08:40;;;;;;;7.30;3.35;;;;;;;20.07;58.72;98878.47;4361363;32;35212;-74
2023/08/31 01:11:22;;;;;;;8.55;4.35;;;;;;;20.07;58.75;98885.78;4373769;32;33406;-73
2023/08/31 01:14:05;;;;;;;9.00;3.87;;;;;;;19.99;59.06;98879.44;4355987;32;33951;-74
2023/08/31 01:16:33;;;;;;;8.98;4.45;;;;;;;20.05;58.89;98885.16;4373922;32;34281;-72
2023/08/31 01:19:04;;;;;;;5.90;3.20;;;;;;;20.09;58.71;98884.53;4370991;32;33429;-71
2023/08/31 01:21:38;;;;;;;7.10;3.47;;;;;;;20.11;58.70;98879.75;4362752;32;33798;-71
2023/08/31 01:24:07;;;;;;;5.72;2.90;;;;;;;20.16;58.58;98888.16;4343311;32;33586;-72
2023/08/31 01:26:35;;;;;;;5.15;3.12;;;;;;;20.08;58.81;98891.03;4357410;32;34968;-71
2023/08/31 01:29:03;;;;;;;5.62;3.17;;;;;;;20.06;59.03;98898.50;4354180;32;34095;-70
2023/08/31 01:31:31;;;;;;;6.97;4.65;;;;;;;20.10;58.93;98899.81;4368495;32;34090;-70
2023/08/31 01:33:59;;;;;;;7.20;3.50;;;;;;;20.16;58.66;98901.75;4370545;32;33867;-69
2023/08/31 01:36:29;;;;;;;8.38;4.53;;;;;;;20.21;58.57;98896.56;4374226;32;33693;-70
2023/08/31 01:39:20;;;;;;;5.78;3.80;;;;;;;20.23;58.89;98901.81;4373747;32;34977;-68
2023/08/31 01:41:52;;;;;;;7.00;4.18;;;;;;;20.11;59.15;98893.34;4365584;32;33769;-69
2023/08/31 01:44:20;;;;;;;7.03;3.37;;;;;;;20.29;58.44;98892.00;4371038;32;33917;-69
2023/08/31 01:46:56;;;;;;;7.32;3.50;;;;;;;20.27;58.34;98888.66;4375876;32;34974;-68
2023/08/31 01:49:24;;;;;;;4.97;3.03;;;;;;;20.27;58.34;98899.53;4364455;32;33574;-69
2023/08/31 01:51:52;;;;;;;6.40;2.97;;;;;;;20.29;58.29;98894.72;4368520;32;35026;-69
2023/08/31 01:54:21;;;;;;;8.27;3.10;;;;;;;20.32;58.28;98891.59;4368204;32;33880;-70
2023/08/31 01:56:49;;;;;;;6.28;3.55;;;;;;;20.31;58.34;98896.22;4368443;32;34110;-69
2023/08/31 01:59:16;;;;;;;8.13;3.53;;;;;;;20.34;58.14;98894.97;4374364;32;33465;-69
2023/08/31 02:01:44;;;;;;;5.35;2.75;;;;;;;20.33;58.40;98896.84;4373779;32;33860;-69
2023/08/31 02:04:12;;;;;;;7.18;3.62;;;;;;;20.37;58.36;98886.44;4371833;32;35784;-69
2023/08/31 02:06:39;;;;;;;6.12;3.35;;;;;;;20.40;58.17;98896.91;4373018;32;33334;-69
2023/08/31 02:09:07;;;;;;;8.10;4.12;;;;;;;20.36;57.92;98898.34;4368415;32;33545;-68
2023/08/31 02:11:37;;;;;;;6.65;3.78;;;;;;;20.37;57.85;98889.16;4374139;32;34685;-69
2023/08/31 02:14:05;;;;;;;7.70;3.75;;;;;;;20.37;57.78;98892.69;4363834;32;33896;-69
2023/08/31 02:16:33;;;;;;;6.65;3.33;;;;;;;20.36;57.91;98885.59;4374824;32;34047;-69
2023/08/31 02:19:01;;;;;;;6.05;2.90;;;;;;;20.34;57.63;98901.25;4374717;32;34073;-69
2023/08/31 02:21:29;;;;;;;5.25;2.85;;;;;;;20.33;57.55;98901.47;4371214;32;34618;-69
2023/08/31 02:23:57;;;;;;;5.30;2.67;;;;;;;20.22;57.81;98902.81;4373564;32;34750;-69
2023/08/31 02:26:24;;;;;;;8.00;2.85;;;;;;;20.12;57.88;98902.31;4373534;32;33275;-69
2023/08/31 02:28:52;;;;;;;6.32;3.45;;;;;;;20.19;57.76;98906.81;4371819;32;35686;-69
2023/08/31 02:31:19;;;;;;;9.52;2.28;;;;;;;20.22;57.65;98906.41;4373101;32;35293;-69
2023/08/31 02:33:48;;;;;;;6.55;2.92;;;;;;;20.21;57.75;98907.41;4372654;32;34821;-69
2023/08/31 02:36:15;;;;;;;7.03;3.22;;;;;;;20.21;57.79;98902.00;4371969;32;33212;-68
2023/08/31 02:38:43;;;;;;;5.00;3.00;;;;;;;20.16;57.99;98900.88;4371498;32;33877;-69
2023/08/31 02:41:13;;;;;;;5.90;4.03;;;;;;;20.18;57.94;98907.81;4372077;32;34875;-69
2023/08/31 02:43:40;;;;;;;6.28;3.15;;;;;;;20.18;58.07;98907.81;4372199;32;34115;-69
2023/08/31 02:46:09;;;;;;;6.30;3.40;;;;;;;20.17;58.01;98908.03;4371625;32;33204;-69
2023/08/31 02:48:38;;;;;;;3.78;2.28;;;;;;;20.22;57.96;98909.13;4375194;32;35002;-69
2023/08/31 02:51:06;;;;;;;7.60;3.08;;;;;;;20.16;58.31;98909.91;4371684;32;34705;-69
2023/08/31 02:53:34;;;;;;;4.53;2.87;;;;;;;20.10;58.68;98907.97;4374976;32;33654;-69
2023/08/31 02:56:01;;;;;;;6.20;3.95;;;;;;;20.17;58.60;98911.56;4373859;32;33570;-69
2023/08/31 02:58:29;;;;;;;6.85;3.37;;;;;;;20.21;58.51;98904.69;4372522;32;32382;-68
2023/08/31 03:01:11;;;;;;;6.37;3.15;;;;;;;20.29;58.17;98911.03;4373443;32;34041;-69
2023/08/31 03:03:40;;;;;;;5.57;3.22;;;;;;;20.32;57.77;98908.78;4368262;32;34749;-69
2023/08/31 03:06:08;;;;;;;5.30;3.03;;;;;;;20.30;57.73;98905.41;4372303;32;33524;-69
2023/08/31 03:08:36;;;;;;;4.85;2.92;;;;;;;20.25;57.71;98897.81;4373603;32;34002;-71
2023/08/31 03:11:04;;;;;;;4.12;2.30;;;;;;;20.25;57.70;98902.44;4373800;32;33702;-70
2023/08/31 03:13:33;;;;;;;6.72;3.28;;;;;;;20.25;57.75;98897.81;4369137;32;35348;-69
2023/08/31 03:16:02;;;;;;;4.07;2.58;;;;;;;20.27;57.95;98907.69;4374472;32;34421;-70
2023/08/31 03:18:30;;;;;;;4.30;2.67;;;;;;;20.28;57.80;98907.47;4378537;32;33843;-70
2023/08/31 03:20:57;;;;;;;5.07;2.70;;;;;;;20.29;57.52;98906.47;4361988;32;35173;-69
2023/08/31 03:23:26;;;;;;;4.93;2.42;;;;;;;20.25;57.53;98911.41;4368354;32;34631;-70
2023/08/31 03:25:53;;;;;;;6.28;2.90;;;;;;;20.19;57.53;98905.94;4373312;32;33319;-70
2023/08/31 03:28:21;;;;;;;4.72;2.53;;;;;;;20.15;57.90;98900.06;4372896;32;33923;-69
2023/08/31 03:30:56;;;;;;;3.85;2.42;;;;;;;20.23;57.58;98915.38;4373508;32;33780;-69
2023/08/31 03:33:24;;;;;;;;;;;;;;;20.25;57.66;98919.56;4371755;32;33948;-70
2023/08/31 03:35:51;;;;;;;5.03;2.85;;;;;;;20.26;57.61;98915.00;4372492;32;33401;-70
2023/08/31 03:38:19;;;;;;;5.68;3.37;;;;;;;20.22;57.52;98922.72;4374157;32;34446;-71
2023/08/31 03:40:55;;;;;;;4.53;2.70;;;;;;;20.21;57.72;98929.16;4373451;32;35237;-70
2023/08/31 03:43:22;;;;;;;4.53;2.47;;;;;;;20.24;57.59;98928.75;4368991;32;34224;-70
2023/08/31 03:45:55;;;;;;;3.70;2.12;;;;;;;20.18;57.70;98923.28;4371809;32;34655;-70
2023/08/31 03:48:24;;;;;;;4.75;3.00;;;;;;;19.93;58.71;98925.56;4378978;32;33275;-70
2023/08/31 03:50:55;;;;;;;4.62;2.62;;;;;;;20.10;58.04;98924.28;4372143;32;33835;-70
2023/08/31 03:53:23;;;;;;;5.82;2.37;;;;;;;19.75;59.11;98915.19;4372582;32;33943;-70
2023/08/31 03:55:51;;;;;;;4.50;2.42;;;;;;;19.77;58.83;98921.22;4373901;32;33616;-69
2023/08/31 03:58:19;;;;;;;5.15;2.92;;;;;;;19.91;58.20;98920.34;4372264;32;35059;-70
2023/08/31 04:00:50;;;;;;;6.22;3.25;;;;;;;19.72;58.86;98921.00;4355177;32;34038;-70
2023/08/31 04:03:18;;;;;;;5.03;2.72;;;;;;;19.93;57.88;98915.53;4374168;32;34621;-70
2023/08/31 04:05:47;;;;;;;5.45;2.67;;;;;;;19.99;57.65;98917.47;4374294;32;35280;-70
2023/08/31 04:08:14;;;;;;;5.18;2.47;;;;;;;19.72;58.51;98927.25;4367544;32;34622;-70
2023/08/31 04:10:42;;;;;;;3.50;2.15;;;;;;;19.73;58.45;98928.09;4370373;32;34049;-70
2023/08/31 04:13:10;;;;;;;4.87;2.72;;;;;;;18.91;61.24;98937.34;4374714;32;35171;-70
2023/08/31 04:15:38;;;;;;;4.70;2.40;;;;;;;19.73;58.81;98936.22;4374151;32;33421;-69
2023/08/31 04:18:06;;;;;;;5.22;2.62;;;;;;;19.94;58.02;98940.84;4371727;32;34014;-70
2023/08/31 04:20:33;;;;;;;3.25;1.87;;;;;;;19.92;58.18;98938.31;4369345;32;33882;-69
2023/08/31 04:23:01;;;;;;;5.28;3.70;;;;;;;20.04;57.92;98940.50;4372374;32;34787;-70
2023/08/31 04:25:31;;;;;;;4.43;2.97;;;;;;;20.07;57.88;98937.41;4372887;32;33252;-69
2023/08/31 04:27:59;;;;;;;5.25;3.00;;;;;;;20.06;57.86;98955.56;4373334;32;33732;-70
2023/08/31 04:30:26;;;;;;;4.10;2.47;;;;;;;20.05;57.76;98950.34;4365510;32;34964;-69
2023/08/31 04:32:54;;;;;;;5.03;2.90;;;;;;;19.90;58.02;98950.38;4372952;32;34723;-70
2023/08/31 04:35:22;;;;;;;4.62;2.67;;;;;;;19.61;59.02;98959.47;4373005;32;33713;-69
2023/08/31 04:37:50;;;;;;;3.83;2.42;;;;;;;19.81;58.38;98954.25;4373857;32;34973;-69
2023/08/31 04:40:18;;;;;;;8.18;3.10;;;;;;;19.89;58.30;98963.13;4371527;32;34079;-69
2023/08/31 04:42:46;;;;;;;5.28;2.40;;;;;;;19.91;58.60;98971.09;4372064;32;33743;-70
2023/08/31 04:45:13;;;;;;;13.70;3.50;;;;;;;19.91;58.38;98969.22;4371321;32;33321;-69
2023/08/31 04:47:42;;;;;;;5.50;2.42;;;;;;;20.02;58.24;98976.00;4374039;32;33820;-69
2023/08/31 04:50:09;;;;;;;3.28;1.92;;;;;;;20.15;58.01;98976.12;4368932;32;34028;-71
2023/08/31 04:52:37;;;;;;;3.42;2.20;;;;;;;20.01;58.24;98979.75;4374787;32;33956;-71
2023/08/31 04:55:11;;;;;;;4.32;2.20;;;;;;;20.00;58.65;98964.50;4373127;32;34745;-71
2023/08/31 04:57:38;;;;;;;7.57;2.25;;;;;;;20.20;57.84;98976.38;4371755;32;34648;-71
2023/08/31 05:00:09;;;;;;;4.70;2.85;;;;;;;20.26;57.81;98980.22;4370092;32;33789;-71
2023/08/31 05:02:37;;;;;;;3.53;2.17;;;;;;;20.27;57.73;98981.03;4366383;32;34543;-71
2023/08/31 05:05:05;;;;;;;5.70;2.80;;;;;;;20.32;57.56;98981.28;4372698;32;33635;-71
2023/08/31 05:07:33;;;;;;;5.47;2.55;;;;;;;20.24;58.47;98983.09;4341944;33;32523;-72
2023/08/31 05:10:00;;;;;;;3.67;2.53;;;;;;;20.41;57.74;98996.41;4349451;32;33912;-72
2023/08/31 05:12:28;;;;;;;4.62;2.67;;;;;;;20.53;57.20;98992.16;4340406;32;34040;-72
2023/08/31 05:14:56;;;;;;;4.03;1.95;;;;;;;20.63;56.99;99000.81;4342711;32;33694;-72
2023/08/31 05:17:23;;;;;;;4.87;2.55;;;;;;;20.43;58.28;98995.19;4341432;32;33406;-72
2023/08/31 05:19:51;;;;;;;5.07;2.90;;;;;;;21.18;55.79;99009.13;4345846;32;32569;-72
2023/08/31 05:22:19;;;;;;;4.80;2.53;;;;;;;21.24;56.00;99010.19;4342354;32;34951;-72
2023/08/31 05:24:46;;;;;;;5.75;2.80;;;;;;;21.21;55.06;99016.03;4342488;32;33360;-72
2023/08/31 05:27:14;;;;;;;4.72;2.42;;;;;;;21.10;54.66;99012.84;4339154;32;33349;-72
2023/08/31 05:29:42;;;;;;;6.45;2.10;;;;;;;21.09;55.08;99013.91;4348323;32;33599;-71
2023/08/31 05:32:10;;;;;;;5.25;2.40;;;;;;;20.99;55.78;99016.13;4355674;32;33981;-71
2023/08/31 05:34:39;;;;;;;4.78;2.62;;;;;;;20.91;55.46;99022.56;4344185;32;33524;-73
2023/08/31 05:37:07;;;;;;;4.43;2.90;;;;;;;20.76;55.75;99031.88;4338452;32;33887;-72
2023/08/31 05:39:34;;;;;;;5.28;2.90;;;;;;;20.60;57.17;99028.38;4369010;32;33764;-71
2023/08/31 05:42:02;;;;;;;4.82;2.42;;;;;;;20.60;56.55;99028.38;4374522;32;35274;-71
2023/08/31 05:44:30;;;;;;;6.10;2.47;;;;;;;20.84;56.05;99031.72;4373145;32;34394;-71
2023/08/31 05:46:58;;;;;;;7.15;3.17;;;;;;;21.09;55.69;99035.66;4372279;32;34738;-71
2023/08/31 05:49:25;;;;;;;5.82;2.95;;;;;;;21.26;55.25;99035.34;4374938;32;34179;-71
2023/08/31 05:51:54;;;;;;;6.35;3.20;;;;;;;21.29;55.33;99041.22;4375373;32;34601;-71
2023/08/31 05:54:22;;;;;;;5.20;2.83;;;;;;;21.11;55.39;99043.63;4374339;32;33632;-72
2023/08/31 05:56:49;;;;;;;5.07;2.72;;;;;;;21.18;55.27;99047.22;4370469;32;34692;-72
2023/08/31 05:59:17;;;;;;;7.15;3.62;;;;;;;21.28;55.38;99057.75;4373898;32;35119;-72
2023/08/31 06:01:44;;;;;;;6.12;3.05;;;;;;;21.30;55.26;99059.22;4367218;32;34092;-70
2023/08/31 06:04:12;;;;;;;5.20;3.33;;;;;;;21.34;55.46;99062.38;4371691;32;33316;-74
2023/08/31 06:06:40;;;;;;;5.47;3.05;;;;;;;21.27;55.63;99065.06;4374489;32;34299;-74
2023/08/31 06:09:07;;;;;;;8.40;3.00;;;;;;;21.39;54.46;99070.84;4374777;32;33907;-74
2023/08/31 06:11:35;;;;;;;4.22;2.95;;;;;;;21.16;55.48;99076.53;4371287;32;34888;-74
2023/08/31 06:14:03;;;;;;;4.68;2.65;;;;;;;20.74;56.49;99077.44;4371996;32;33634;-75
2023/08/31 06:16:31;;;;;;;5.10;2.90;;;;;;;21.14;56.83;99078.59;4366771;32;34693;-76
2023/08/31 06:18:59;;;;;;;6.62;3.05;;;;;;;20.78;58.48;99076.88;4360168;32;35801;-75
2023/08/31 06:21:26;;;;;;;3.80;2.28;;;;;;;20.89;58.06;99078.19;4374902;32;34223;-75
2023/08/31 06:23:54;;;;;;;6.57;2.65;;;;;;;21.07;56.98;99081.28;4369841;32;34408;-75
2023/08/31 06:26:22;;;;;;;5.30;3.72;;;;;;;21.26;56.72;99089.78;4371508;32;33750;-75
2023/08/31 06:28:50;;;;;;;4.57;3.03;;;;;;;21.18;57.92;99082.59;4371791;32;34057;-75
2023/08/31 06:31:19;;;;;;;4.85;3.17;;;;;;;21.23;56.94;99092.91;4369470;32;33504;-75
2023/08/31 06:33:47;;;;;;;7.03;2.45;;;;;;;21.13;57.43;99098.69;4369802;32;34741;-75
2023/08/31 06:36:14;;;;;;;4.65;3.05;;;;;;;21.69;56.02;99104.06;4371739;32;34933;-70
2023/08/31 06:38:42;;;;;;;4.78;2.80;;;;;;;21.96;54.34;99101.44;4366198;32;34142;-74
2023/08/31 06:41:10;;;;;;;3.65;2.55;;;;;;;21.46;56.35;99096.19;4373757;32;32926;-74
2023/08/31 06:43:37;;;;;;;4.22;2.62;;;;;;;21.87;54.38;99090.75;4371174;32;34282;-75
2023/08/31 06:46:05;;;;;;;7.32;3.90;;;;;;;21.57;55.71;99097.50;4338039;32;33738;-75
2023/08/31 06:48:52;;;;;;;5.78;3.30;;;;;;;21.33;57.40;99099.66;4340481;32;35403;-74
2023/08/31 06:51:19;;;;;;;3.83;2.10;;;;;;;21.28;56.87;99102.13;4337353;32;35219;-75
2023/08/31 06:53:51;;;;;;;4.40;2.40;;;;;;;21.72;54.93;99103.66;4333667;32;33265;-75
2023/08/31 06:56:19;;;;;;;6.75;3.03;;;;;;;21.55;55.96;99103.16;4340097;32;33619;-75
2023/08/31 06:58:47;;;;;;;9.00;2.45;;;;;;;21.23;57.81;99104.63;4337561;32;33914;-75
2023/08/31 07:01:14;;;;;;;4.25;2.65;;;;;;;21.57;56.59;99128.31;4331388;32;130739;-74
2023/08/31 07:03:42;;;;;;;5.10;2.67;;;;;;;21.20;56.26;99121.34;4334918;32;31883;-75
2023/08/31 07:06:11;;;;;;;4.55;3.08;;;;;;;21.38;57.19;99118.16;4340827;32;33783;-75
2023/08/31 07:08:40;;;;;;;4.93;2.87;;;;;;;21.32;58.10;99124.37;4332267;32;33966;-75
2023/08/31 07:11:08;;;;;;;3.80;2.22;;;;;;;21.35;57.00;99137.59;4342310;32;33745;-75
2023/08/31 07:13:35;;;;;;;3.75;2.28;;;;;;;21.70;56.31;99137.59;4343693;32;34090;-75
2023/08/31 07:16:04;;;;;;;3.97;2.60;;;;;;;21.93;55.53;99129.97;4334359;32;33888;-75
2023/08/31 07:18:32;;;;;;;5.00;2.92;;;;;;;22.03;56.00;99138.59;4366151;32;34171;-75
2023/08/31 07:20:59;;;;;;;6.68;2.55;;;;;;;21.57;56.80;99130.19;4371387;32;34066;-75
2023/08/31 07:23:27;;;;;;;3.58;2.28;;;;;;;21.88;56.14;99137.91;4372411;32;34340;-75
2023/08/31 07:25:59;;;;;;;7.65;2.47;;;;;;;22.23;55.06;99140.59;4374141;32;33729;-74
2023/08/31 07:28:27;;;;;;;7.47;2.60;;;;;;;21.78;56.32;99140.16;4374349;32;34083;-74
2023/08/31 07:31:06;;;;;;;4.50;2.65;;;;;;;21.90;55.47;99145.88;4372411;32;34149;-75
2023/08/31 07:33:35;;;;;;;4.07;2.62;;;;;;;21.85;55.00;99147.31;4372954;32;34129;-75
2023/08/31 07:36:05;;;;;;;4.78;2.75;;;;;;;21.78;56.21;99149.16;4369142;32;34852;-75
2023/08/31 07:38:33;;;;;;;7.60;2.72;;;;;;;22.01;55.36;99156.19;4366114;32;34071;-74
2023/08/31 07:41:01;;;;;;;3.92;2.58;;;;;;;22.09;56.10;99156.03;4367035;32;34220;-74
2023/08/31 07:43:29;;;;;;;3.50;2.30;;;;;;;22.23;54.99;99154.22;4371239;32;33531;-72
2023/08/31 07:45:57;;;;;;;4.72;2.28;;;;;;;22.21;53.87;99148.94;4361008;32;33820;-72
2023/08/31 07:48:24;;;;;;;4.57;2.95;;;;;;;22.23;53.93;99152.31;4373071;32;34980;-75
2023/08/31 07:50:52;;;;;;;4.55;3.12;;;;;;;22.13;53.60;99151.84;4374835;32;33701;-73
2023/08/31 07:53:20;;;;;;;5.47;2.80;;;;;;;22.03;53.66;99156.84;4374774;32;33652;-74
2023/08/31 07:55:54;;;;;;;4.25;2.25;;;;;;;22.30;53.94;99155.06;4363588;32;33963;-76
2023/08/31 07:58:23;;;;;;;5.47;2.45;;;;;;;22.22;54.26;99160.72;4345133;32;33867;-76
2023/08/31 08:00:55;;;;;;;4.78;2.22;;;;;;;22.18;54.20;99153.97;4363171;32;33850;-75
2023/08/31 08:03:23;;;;;;;3.50;2.17;;;;;;;22.44;53.89;99164.13;4348558;32;34457;-75
2023/08/31 08:05:51;;;;;;;5.43;2.15;;;;;;;22.15;54.45;99165.25;4349348;32;33081;-74
2023/08/31 08:08:19;;;;;;;5.37;2.60;;;;;;;22.46;53.19;99168.34;4350058;32;34018;-75
2023/08/31 08:10:51;;;;;;;4.20;2.08;;;;;;;22.53;53.02;99166.44;4352352;32;33647;-76
2023/08/31 08:13:19;;;;;;;5.85;2.42;;;;;;;22.82;52.78;99167.12;4356058;32;33298;-76
2023/08/31 08:15:47;;;;;;;5.60;2.72;;;;;;;22.75;52.21;99172.59;4354011;32;34735;-74
2023/08/31 08:18:14;;;;;;;3.67;2.05;;;;;;;22.84;52.65;99169.69;4354821;32;33891;-75
2023/08/31 08:20:42;;;;;;;6.50;2.30;;;;;;;22.78;53.95;99165.88;4356142;32;34883;-75
2023/08/31 08:23:10;;;;;;;6.68;3.12;;;;;;;22.89;52.22;99170.75;4356420;32;33202;-76
2023/08/31 08:25:38;;;;;;;3.53;2.28;;;;;;;22.60;52.16;99173.81;4342691;32;33655;-75
2023/08/31 08:28:06;;;;;;;5.80;2.78;;;;;;;22.92;51.39;99177.66;4347205;32;35874;-76
2023/08/31 08:30:33;;;;;;;3.00;1.90;;;;;;;22.55;53.49;99172.56;4363268;32;32934;-74
2023/08/31 08:33:02;;;;;;;3.12;1.80;;;;;;;23.02;51.99;99173.50;4370524;32;32729;-74
2023/08/31 08:35:30;;;;;;;3.28;1.83;;;;;;;22.65;52.12;99180.34;4358940;32;33994;-75
2023/08/31 08:37:57;;;;;;;5.07;2.40;;;;;;;22.85;51.74;99183.09;4373477;32;34925;-75
2023/08/31 08:40:25;;;;;;;4.30;2.37;;;;;;;22.94;51.69;99176.44;4372203;32;34122;-78
2023/08/31 08:42:54;;;;;;;3.97;1.95;;;;;;;23.11;51.00;99184.19;4364817;32;33390;-76
2023/08/31 08:45:25;;;;;;;3.10;1.83;;;;;;;22.72;50.52;99177.63;4362722;32;34659;-80
2023/08/31 08:47:53;;;;;;;3.40;1.87;;;;;;;23.15;50.21;99185.47;4363178;32;34101;-78
2023/08/31 08:50:23;;;;;;;3.35;2.03;;;;;;;22.73;50.60;99180.16;4332713;32;33662;-77
2023/08/31 08:52:51;;;;;;;4.87;2.17;;;;;;;23.05;51.83;99177.72;4329060;32;33283;-77
2023/08/31 08:55:20;;;;;;;2.83;1.55;;;;;;;22.18;51.91;99201.16;4337893;33;34166;-74
2023/08/31 08:57:48;;;;;;;4.10;1.87;;;;;;;22.75;49.40;99190.84;4333299;32;33902;-78
2023/08/31 09:00:16;;;;;;;2.92;1.70;;;;;;;22.85;49.58;99194.00;4339343;33;33031;-75
2023/08/31 09:02:45;;;;;;;2.67;1.73;;;;;;;22.98;50.17;99202.25;4336138;32;33676;-75
2023/08/31 09:05:13;;;;;;;4.20;1.77;;;;;;;23.45;47.54;99197.62;4333998;32;33529;-76
2023/08/31 09:08:02;;;;;;;4.00;1.85;;;;;;;23.09;48.26;99206.25;4335851;32;35160;-76
2023/08/31 09:10:38;;;;;;;3.87;1.65;;;;;;;23.47;46.64;99200.19;4339263;32;33970;-76
2023/08/31 09:13:15;;;;;;;2.95;1.62;;;;;;;23.55;47.11;99202.69;4294722;33;34555;-75
2023/08/31 09:15:48;;;;;;;4.55;2.00;;;;;;;23.61;46.07;99210.03;4298007;33;33876;-76
2023/08/31 09:18:23;;;;;;;2.25;1.30;;;;;;;23.80;46.50;99216.53;4295897;33;33728;-76
2023/08/31 09:20:51;;;;;;;;;;;;;;;24.20;45.54;99219.16;4281551;33;35047;-76
2023/08/31 09:23:19;;;;;;;5.30;1.90;;;;;;;23.25;48.30;99211.31;4284083;33;34926;-72
2023/08/31 09:25:54;;;;;;;1.92;1.15;;;;;;;23.38;49.35;99210.47;4254425;33;34995;-73
2023/08/31 09:28:29;;;;;;;;;;;;;;;23.34;48.41;99214.69;4255574;33;35304;-73
2023/08/31 09:31:07;;;;;;;5.15;1.58;;;;;;;23.89;47.33;99212.53;4258377;33;34723;-73
2023/08/31 09:33:38;;;;;;;3.62;1.50;;;;;;;24.19;47.06;99212.03;4258616;33;34676;-73
2023/08/31 09:36:07;;;;;;;4.03;1.60;;;;;;;24.15;45.44;99217.09;4255744;33;33381;-73
2023/08/31 09:38:43;;;;;;;2.95;1.50;;;;;;;24.26;44.37;99223.75;4252902;33;35127;-74
2023/08/31 09:41:11;;;;;;;6.65;1.42;;;;;;;24.10;43.97;99216.03;4255271;33;35477;-73
2023/08/31 09:43:39;;;;;;;2.78;1.70;;;;;;;24.42;44.63;99210.69;4276325;33;34348;-76
2023/08/31 09:46:08;;;;;;;3.35;1.40;;;;;;;24.87;44.69;99220.53;4328267;33;32182;-75
2023/08/31 09:48:37;;;;;;;3.12;1.65;;;;;;;24.77;44.10;99222.91;4326804;33;34148;-76
2023/08/31 09:51:06;;;;;;;2.75;1.42;;;;;;;24.75;44.33;99227.78;4326525;33;33941;-75
2023/08/31 09:53:36;;;;;;;3.78;1.90;;;;;;;25.07;42.85;99225.91;4329052;33;33434;-72
2023/08/31 09:56:07;;;;;;;4.20;1.73;;;;;;;25.05;42.52;99232.66;4330060;32;33846;-75
2023/08/31 09:58:35;;;;;;;4.32;1.87;;;;;;;24.80;42.87;99230.69;4364461;32;33928;-77
2023/08/31 10:01:03;;;;;;;4.50;2.00;;;;;;;24.78;44.13;99237.44;4351634;32;34900;-76
2023/08/31 10:03:43;;;;;;;2.85;1.73;;;;;;;24.65;43.79;99241.09;4355561;32;34730;-77
2023/08/31 10:06:12;;;;;;;3.60;1.73;;;;;;;25.07;43.24;99231.37;4364684;32;32426;-77
2023/08/31 10:08:40;;;;;;;3.45;1.83;;;;;;;24.22;43.46;99243.56;4367980;32;35078;-77
2023/08/31 10:11:12;;;;;;;3.15;1.80;;;;;;;24.55;42.92;99248.94;4364002;32;33910;-77
2023/08/31 10:13:41;;;;;;;2.75;1.48;;;;;;;24.70;43.45;99244.03;4354376;32;33551;-77
2023/08/31 10:16:10;;;;;;;2.72;1.70;;;;;;;24.59;44.53;99259.25;4370549;32;33933;-76
2023/08/31 10:18:37;;;;;;;5.72;2.20;;;;;;;24.55;44.24;99259.88;4354217;32;32473;-77
2023/08/31 10:21:05;;;;;;;6.00;2.50;;;;;;;24.58;43.93;99257.53;4355306;32;33942;-77
2023/08/31 10:23:35;;;;;;;2.20;1.27;;;;;;;24.38;44.87;99259.50;4370166;32;33399;-77
2023/08/31 10:26:06;;;;;;;2.35;1.48;;;;;;;24.62;44.55;99256.06;4356352;32;34829;-77
2023/08/31 10:28:40;;;;;;;3.58;1.30;;;;;;;24.38;45.62;99257.59;4352477;32;32640;-77
2023/08/31 10:31:17;;;;;;;3.30;1.87;;;;;;;24.04;46.64;99252.44;4369640;32;34862;-77
2023/08/31 10:33:59;;;;;;;2.60;1.50;;;;;;;24.44;44.64;99257.81;4366762;32;33022;-77
2023/08/31 10:36:46;;;;;;;2.65;1.60;;;;;;;23.99;46.05;99263.19;4367863;32;33527;-77
2023/08/31 10:39:22;;;;;;;2.60;1.30;;;;;;;23.85;44.96;99267.81;4364162;32;33958;-77
2023/08/31 10:41:56;;;;;;;3.45;1.73;;;;;;;24.18;44.34;99270.50;4373215;32;33983;-77
2023/08/31 10:44:26;;;;;;;4.22;1.98;;;;;;;24.15;44.68;99273.66;4377528;32;33314;-77
2023/08/31 10:46:54;;;;;;;4.78;1.90;;;;;;;23.97;43.71;99279.78;4373362;32;35025;-77
2023/08/31 10:49:22;;;;;;;3.72;1.62;;;;;;;23.89;43.75;99278.13;4375284;32;34010;-78
2023/08/31 10:51:55;;;;;;;2.65;1.60;;;;;;;23.79;44.80;99271.38;4359331;32;35101;-78
2023/08/31 10:54:27;;;;;;;4.60;1.62;;;;;;;23.53;44.52;99278.53;4367771;32;33441;-78
2023/08/31 10:56:57;;;;;;;2.83;1.58;;;;;;;23.61;44.01;99277.47;4375344;32;34444;-78
2023/08/31 10:59:26;;;;;;;2.75;1.50;;;;;;;23.81;44.67;99272.88;4374653;32;34091;-77
2023/08/31 11:02:04;;;;;;;2.53;1.40;;;;;;;23.30;46.83;99295.31;4369214;32;34845;-77
2023/08/31 11:04:52;;;;;;;2.95;1.62;;;;;;;23.92;45.09;99291.38;4363429;32;33579;-77
2023/08/31 11:07:26;;;;;;;3.87;1.48;;;;;;;24.40;44.25;99282.84;4360103;32;33494;-74
2023/08/31 11:10:10;;;;;;;2.70;1.65;;;;;;;24.34;43.55;99285.59;4363275;32;35025;-74
2023/08/31 11:12:40;;;;;;;2.65;1.30;;;;;;;24.36;43.87;99281.56;4368552;32;33836;-74
2023/08/31 11:15:08;;;;;;;2.30;1.50;;;;;;;24.24;44.36;99288.78;4373043;32;35036;-74
2023/08/31 11:17:36;;;;;;;3.15;1.35;;;;;;;23.97;44.88;99289.88;4372937;32;34688;-74
2023/08/31 11:20:05;;;;;;;5.82;1.92;;;;;;;24.18;45.25;99295.94;4372325;32;34875;-74
2023/08/31 11:22:33;;;;;;;2.92;1.50;;;;;;;24.44;45.23;99296.12;4369737;32;35868;-74
2023/08/31 11:25:01;;;;;;;7.50;1.77;;;;;;;24.03;45.40;99303.53;4367954;32;34421;-74
2023/08/31 11:27:28;;;;;;;2.37;1.42;;;;;;;24.59;43.76;99304.88;4358045;32;34756;-74
2023/08/31 11:29:56;;;;;;;2.83;1.48;;;;;;;24.73;44.34;99294.75;4368251;32;33600;-74
2023/08/31 11:32:26;;;;;;;2.83;1.42;;;;;;;25.33;44.21;99293.38;4365880;32;34045;-74
2023/08/31 11:34:53;;;;;;;3.53;1.55;;;;;;;25.00;44.87;99292.69;4369065;32;33303;-74
2023/08/31 11:37:22;;;;;;;4.57;1.83;;;;;;;25.09;43.35;99288.66;4372994;32;34891;-74
2023/08/31 11:39:51;;;;;;;4.40;1.80;;;;;;;25.08;42.30;99287.81;4361248;32;34836;-73
2023/08/31 11:42:21;;;;;;;3.20;1.83;;;;;;;25.37;41.54;99285.56;4373690;32;33746;-73
2023/08/31 11:44:50;;;;;;;4.20;1.83;;;;;;;25.14;42.77;99288.88;4341597;32;34282;-73